Time;durP1;ratioP1;P1;durP2;ratioP2;P2;SDS_P1;SDS_P2;PMS_P1;PMS_P2;Temp;Humidity;BMP_temperature;BMP_pressure;BME280_temperature;BME280_humidity;BME280_pressure;Samples;Min_cycle;Max_cycle;Signal;HPM_P1;HPM_P2
2023/06/17 00:01:31;;;;;;;7.72;4.57;;;;;;;14.85;65.12;100655.63;4973994;28;20046;-76
2023/06/17 00:04:34;;;;;;;5.75;4.25;;;;;;;14.78;65.35;100654.34;4974081;28;20137;-76
2023/06/17 00:07:39;;;;;;;10.43;5.18;;;;;;;14.61;66.12;100658.97;4973950;28;20475;-76
2023/06/17 00:10:43;;;;;;;10.55;4.53;;;;;;;14.70;65.87;100654.00;4973583;28;20135;-76
2023/06/17 00:13:47;;;;;;;5.97;4.65;;;;;;;14.56;66.50;100652.31;4973444;28;20058;-76
2023/06/17 00:16:50;;;;;;;8.88;4.53;;;;;;;14.43;66.77;100660.16;4973667;28;20101;-75
2023/06/17 00:19:56;;;;;;;6.40;5.00;;;;;;;14.40;67.24;100660.34;4973747;28;20061;-75
2023/06/17 00:23:00;;;;;;;5.18;4.57;;;;;;;14.35;67.17;100652.75;4973579;28;20054;-75
2023/06/17 00:26:03;;;;;;;7.60;4.47;;;;;;;14.38;67.23;100647.28;4973758;28;20062;-75
2023/06/17 00:29:07;;;;;;;7.03;4.85;;;;;;;14.22;68.01;100656.28;4973513;28;20045;-75
2023/06/17 00:32:10;;;;;;;6.88;4.47;;;;;;;14.06;68.25;100659.91;4961565;28;20049;-75
2023/06/17 00:35:14;;;;;;;9.60;4.15;;;;;;;14.12;67.57;100656.88;4973508;28;20493;-76
2023/06/17 00:38:17;;;;;;;5.28;4.18;;;;;;;14.11;67.20;100655.22;4973379;28;20516;-76
2023/06/17 00:41:20;;;;;;;6.68;4.40;;;;;;;14.05;67.72;100646.88;4961410;28;20089;-75
2023/06/17 00:44:23;;;;;;;5.13;4.05;;;;;;;14.12;67.72;100649.00;4961432;28;20510;-76
2023/06/17 00:47:27;;;;;;;5.53;4.32;;;;;;;14.19;68.02;100658.16;4973391;28;20057;-76
2023/06/17 00:50:32;;;;;;;8.20;4.93;;;;;;;14.08;68.17;100650.16;4961396;28;20050;-76
2023/06/17 00:53:35;;;;;;;10.35;4.75;;;;;;;13.93;68.43;100656.38;4962518;28;20093;-77
2023/06/17 00:56:40;;;;;;;8.55;4.80;;;;;;;13.91;68.74;100656.50;4964804;28;20041;-76
2023/06/17 00:59:45;;;;;;;7.70;4.57;;;;;;;13.91;68.96;100653.00;4964764;28;20046;-76
2023/06/17 01:02:48;;;;;;;6.38;4.15;;;;;;;13.85;69.08;100648.16;4964646;28;20078;-76
2023/06/17 01:05:56;;;;;;;8.90;4.45;;;;;;;13.88;69.12;100655.81;4976528;28;20042;-76
2023/06/17 01:09:09;;;;;;;5.15;4.40;;;;;;;13.71;69.35;100647.22;4976511;28;20046;-77
2023/06/17 01:12:14;;;;;;;6.40;4.43;;;;;;;13.69;69.64;100653.56;4976121;28;20050;-78
2023/06/17 01:15:18;;;;;;;7.38;4.45;;;;;;;13.66;69.49;100649.34;4976405;28;20069;-77
2023/06/17 01:18:22;;;;;;;6.10;4.45;;;;;;;13.53;69.58;100648.41;4975617;28;20049;-77
2023/06/17 01:21:28;;;;;;;8.82;4.55;;;;;;;13.52;69.79;100646.72;4976257;28;20408;-78
2023/06/17 01:24:33;;;;;;;9.95;4.60;;;;;;;13.53;69.88;100648.41;4976265;28;20049;-77
2023/06/17 01:27:37;;;;;;;5.93;4.50;;;;;;;13.43;70.22;100649.91;4975404;28;20118;-77
2023/06/17 01:30:40;;;;;;;7.63;5.22;;;;;;;13.37;70.59;100650.28;4976109;28;20110;-77
2023/06/17 01:33:50;;;;;;;7.28;4.82;;;;;;;13.40;70.73;100657.97;4964374;28;20468;-76
2023/06/17 01:36:56;;;;;;;8.05;4.63;;;;;;;13.35;70.58;100650.41;4963960;28;20562;-77
2023/06/17 01:40:02;;;;;;;9.13;5.05;;;;;;;13.35;70.80;100644.31;4975938;28;20515;-76
2023/06/17 01:43:08;;;;;;;8.23;4.40;;;;;;;13.21;71.16;100648.59;4964015;28;20046;-77
2023/06/17 01:46:15;;;;;;;8.88;5.00;;;;;;;13.28;71.00;100648.25;4975778;28;20045;-77
2023/06/17 01:49:18;;;;;;;8.68;4.88;;;;;;;13.21;71.11;100645.13;4975766;28;20170;-76
2023/06/17 01:52:22;;;;;;;6.97;5.15;;;;;;;13.20;71.08;100646.88;4975741;28;20125;-77
2023/06/17 01:55:25;;;;;;;8.73;5.22;;;;;;;13.15;71.03;100643.72;4963787;28;20105;-76
2023/06/17 01:58:29;;;;;;;7.47;4.60;;;;;;;12.97;71.74;100643.03;4963636;28;20050;-76
2023/06/17 02:01:32;;;;;;;5.80;5.20;;;;;;;12.99;72.42;100635.09;4975605;28;20109;-76
2023/06/17 02:04:36;;;;;;;5.95;4.53;;;;;;;13.08;71.87;100641.53;4975425;28;20471;-76
2023/06/17 02:07:40;;;;;;;6.88;4.90;;;;;;;13.12;71.50;100633.41;4975657;28;20125;-76
2023/06/17 02:10:43;;;;;;;5.22;4.30;;;;;;;13.03;71.69;100639.22;4975277;28;20045;-76
2023/06/17 02:13:48;;;;;;;6.15;4.28;;;;;;;12.94;72.20;100640.59;4975114;28;20078;-76
2023/06/17 02:16:52;;;;;;;7.75;5.18;;;;;;;12.85;72.31;100632.44;4974564;28;20045;-76
2023/06/17 02:19:55;;;;;;;6.03;4.85;;;;;;;12.80;72.66;100633.56;4974417;28;20125;-75
2023/06/17 02:22:58;;;;;;;6.68;4.45;;;;;;;12.76;72.80;100634.69;4963094;28;20126;-76
2023/06/17 02:26:02;;;;;;;11.50;4.93;;;;;;;12.82;72.20;100624.75;4963149;28;20090;-76
2023/06/17 02:29:05;;;;;;;9.95;5.32;;;;;;;12.71;71.93;100628.88;4963052;28;20100;-76
2023/06/17 02:32:09;;;;;;;5.38;4.45;;;;;;;12.59;72.26;100629.59;4963153;28;20588;-76
2023/06/17 02:35:12;;;;;;;6.35;4.93;;;;;;;12.63;72.38;100625.84;4973580;28;20049;-75
2023/06/17 02:38:15;;;;;;;6.57;4.60;;;;;;;12.57;72.77;100634.06;4972153;28;20519;-76
2023/06/17 02:41:19;;;;;;;5.53;4.53;;;;;;;12.55;72.39;100635.97;4960914;28;20119;-75
2023/06/17 02:44:23;;;;;;;7.82;4.80;;;;;;;12.46;73.48;100637.31;4961108;28;20128;-75
2023/06/17 02:47:28;;;;;;;8.15;4.97;;;;;;;12.49;73.88;100638.94;4971871;28;20053;-75
2023/06/17 02:50:31;;;;;;;5.38;4.55;;;;;;;12.55;74.01;100634.16;4973501;28;20138;-75
2023/06/17 02:53:34;;;;;;;7.18;5.13;;;;;;;12.54;73.56;100642.97;4973887;28;20041;-75
2023/06/17 02:56:39;;;;;;;5.63;4.78;;;;;;;12.47;73.84;100640.78;4973795;28;20409;-76
2023/06/17 02:59:42;;;;;;;6.88;5.03;;;;;;;12.40;74.15;100639.47;4962788;28;20101;-76
2023/06/17 03:02:47;;;;;;;7.32;4.85;;;;;;;12.37;73.84;100637.84;4973900;28;20052;-76
2023/06/17 03:05:50;;;;;;;6.25;4.70;;;;;;;12.25;73.95;100642.06;4962686;28;20049;-76
2023/06/17 03:08:54;;;;;;;9.00;5.03;;;;;;;12.18;74.28;100643.31;4962559;28;20045;-76
2023/06/17 03:11:59;;;;;;;8.77;4.53;;;;;;;12.17;74.44;100635.56;4973564;28;20057;-76
2023/06/17 03:15:02;;;;;;;9.38;5.25;;;;;;;12.17;74.40;100638.16;4974165;28;20073;-75
2023/06/17 03:18:05;;;;;;;7.68;4.63;;;;;;;12.13;74.52;100636.66;4962302;28;20129;-75
2023/06/17 03:21:09;;;;;;;5.63;5.03;;;;;;;12.09;74.92;100644.69;4962169;28;20049;-75
2023/06/17 03:24:14;;;;;;;6.05;4.63;;;;;;;12.06;74.79;100647.50;4962153;28;20053;-75
2023/06/17 03:27:17;;;;;;;6.53;4.82;;;;;;;12.06;74.64;100647.50;4973308;28;20046;-75
2023/06/17 03:30:23;;;;;;;7.72;4.55;;;;;;;12.18;74.61;100655.56;4962113;28;20045;-76
2023/06/17 03:33:27;;;;;;;6.53;4.78;;;;;;;12.28;74.42;100655.00;4962063;28;20086;-76
2023/06/17 03:36:30;;;;;;;5.97;4.32;;;;;;;12.28;74.69;100656.75;4962373;28;20100;-75
2023/06/17 03:39:34;;;;;;;8.25;4.75;;;;;;;12.57;71.95;100652.44;4962071;28;20070;-76
2023/06/17 03:42:38;;;;;;;6.70;4.40;;;;;;;12.50;71.15;100645.84;4962046;28;20046;-76
2023/06/17 03:45:42;;;;;;;5.43;4.20;;;;;;;12.52;71.36;100649.25;4962315;28;20173;-76
2023/06/17 03:48:46;;;;;;;7.85;4.88;;;;;;;12.31;73.63;100648.69;4961994;28;20511;-76
2023/06/17 03:51:49;;;;;;;10.43;5.80;;;;;;;12.18;74.38;100647.72;4951083;28;20089;-76
2023/06/17 03:54:54;;;;;;;6.22;5.00;;;;;;;12.06;75.38;100646.63;4973794;28;20506;-76
2023/06/17 03:57:57;;;;;;;6.80;4.82;;;;;;;12.15;75.15;100640.88;4961926;28;20122;-76
2023/06/17 04:01:03;;;;;;;6.55;4.70;;;;;;;12.28;75.04;100647.13;4973281;28;20045;-76
2023/06/17 04:04:07;;;;;;;6.88;5.30;;;;;;;12.24;75.30;100642.97;4961788;28;20100;-76
2023/06/17 04:07:10;;;;;;;8.43;5.10;;;;;;;12.25;75.31;100649.91;4961903;28;20057;-76
2023/06/17 04:10:13;;;;;;;8.13;4.50;;;;;;;12.40;74.42;100640.31;4961880;28;20046;-76
2023/06/17 04:13:17;;;;;;;5.20;4.07;;;;;;;12.50;72.36;100640.63;4953358;29;20128;-76
2023/06/17 04:16:21;;;;;;;7.00;4.63;;;;;;;12.39;72.07;100641.25;4953598;29;20046;-75
2023/06/17 04:19:24;;;;;;;6.93;4.47;;;;;;;12.37;72.73;100642.25;4953465;29;20046;-75
2023/06/17 04:22:28;;;;;;;6.38;5.45;;;;;;;12.39;73.03;100645.66;4953475;29;20062;-75
2023/06/17 04:25:32;;;;;;;;;;;;;;;12.62;72.10;100637.28;4954182;29;20049;-75
2023/06/17 04:28:37;;;;;;;7.85;4.72;;;;;;;12.76;71.31;100637.31;4955720;28;19921;-75
2023/06/17 04:31:40;;;;;;;7.28;5.13;;;;;;;12.83;70.97;100631.66;4957053;29;20050;-75
2023/06/17 04:34:47;;;;;;;6.03;4.82;;;;;;;12.88;71.23;100627.84;4957323;29;20054;-75
2023/06/17 04:37:53;;;;;;;7.20;4.88;;;;;;;12.62;73.34;100629.41;4957017;29;20170;-75
2023/06/17 04:40:58;;;;;;;5.95;5.30;;;;;;;12.49;74.61;100631.91;4968045;28;20042;-75
2023/06/17 04:44:02;;;;;;;6.28;4.90;;;;;;;12.43;75.24;100627.00;4956871;29;20098;-75
2023/06/17 04:47:10;;;;;;;6.03;4.63;;;;;;;12.65;74.39;100628.38;4956900;29;20058;-75
2023/06/17 04:50:16;;;;;;;6.63;4.22;;;;;;;12.82;73.45;100625.59;4967779;28;20050;-75
2023/06/17 04:53:21;;;;;;;5.93;4.93;;;;;;;12.85;73.60;100627.19;4956800;29;20054;-75
2023/06/17 04:56:26;;;;;;;6.50;4.60;;;;;;;12.83;73.47;100626.44;4956640;29;20085;-75
2023/06/17 04:59:30;;;;;;;5.63;4.30;;;;;;;12.97;72.50;100629.06;4956591;29;20049;-74
2023/06/17 05:02:39;;;;;;;6.20;4.50;;;;;;;13.04;71.91;100622.50;4956706;29;20062;-79
2023/06/17 05:05:42;;;;;;;6.10;4.78;;;;;;;13.16;71.06;100616.50;4945469;29;20062;-75
2023/06/17 05:08:46;;;;;;;;;;;;;;;13.32;70.61;100618.22;4956940;29;20046;-75
2023/06/17 05:11:50;;;;;;;7.75;5.07;;;;;;;13.35;70.55;100607.53;4956288;29;19925;-74
2023/06/17 05:14:54;;;;;;;6.57;4.75;;;;;;;13.44;70.02;100609.59;4948484;29;20564;-75
2023/06/17 05:17:57;;;;;;;6.85;4.70;;;;;;;13.53;69.79;100613.41;4936171;29;20047;-76
2023/06/17 05:21:03;;;;;;;7.57;4.70;;;;;;;13.52;69.90;100612.56;4935886;29;20663;-75
2023/06/17 05:24:07;;;;;;;5.00;4.13;;;;;;;13.56;69.67;100616.69;4934790;29;20095;-75
2023/06/17 05:27:10;;;;;;;6.22;5.03;;;;;;;13.62;70.24;100626.78;4934970;29;20126;-82
2023/06/17 05:30:15;;;;;;;8.90;5.28;;;;;;;13.63;69.91;100622.41;4945981;29;20046;-75
2023/06/17 05:33:21;;;;;;;10.50;5.03;;;;;;;13.48;70.26;100634.72;4934939;29;20142;-74
2023/06/17 05:36:25;;;;;;;6.45;4.38;;;;;;;13.36;70.74;100635.47;4933142;29;20102;-82
2023/06/17 05:39:28;;;;;;;6.68;5.05;;;;;;;13.34;70.59;100640.00;4934070;29;20051;-74
2023/06/17 05:42:32;;;;;;;6.60;4.90;;;;;;;13.45;70.77;100637.53;4935248;29;20062;-76
2023/06/17 05:45:36;;;;;;;5.50;4.45;;;;;;;13.53;70.27;100637.91;4924341;29;20560;-76
2023/06/17 05:48:39;;;;;;;6.68;4.50;;;;;;;13.72;70.35;100632.34;4935618;29;20050;-74
2023/06/17 05:51:43;;;;;;;6.13;4.43;;;;;;;13.90;69.67;100631.13;4936368;29;20142;-74
2023/06/17 05:54:46;;;;;;;9.38;4.70;;;;;;;14.02;69.57;100626.03;4947459;29;20067;-74
2023/06/17 05:57:51;;;;;;;5.03;4.25;;;;;;;14.23;68.98;100632.53;4936278;29;20047;-76
2023/06/17 06:00:55;;;;;;;7.95;4.35;;;;;;;14.37;68.89;100632.44;4936364;29;20050;-75
2023/06/17 06:03:58;;;;;;;10.88;5.13;;;;;;;14.51;69.14;100623.66;4937115;29;20102;-75
2023/06/17 06:07:01;;;;;;;5.80;4.53;;;;;;;14.63;68.29;100628.09;4936169;29;20086;-76
2023/06/17 06:10:06;;;;;;;5.50;4.93;;;;;;;14.65;68.74;100628.00;4936103;29;20083;-77
2023/06/17 06:13:09;;;;;;;6.18;4.05;;;;;;;14.77;68.38;100626.31;4945634;29;20050;-76
2023/06/17 06:16:12;;;;;;;7.22;4.38;;;;;;;14.92;67.61;100624.44;4954783;29;20081;-77
2023/06/17 06:19:16;;;;;;;6.28;4.13;;;;;;;15.05;67.40;100626.09;4953805;29;20464;-77
2023/06/17 06:22:20;;;;;;;8.45;4.50;;;;;;;15.08;67.14;100628.53;4955040;29;20045;-79
2023/06/17 06:25:23;;;;;;;5.25;4.70;;;;;;;15.19;66.72;100630.44;4955790;29;20053;-78
2023/06/17 06:28:26;;;;;;;6.72;4.47;;;;;;;15.29;66.38;100628.00;4953904;29;20046;-79
2023/06/17 06:31:30;;;;;;;6.70;4.18;;;;;;;15.39;66.46;100621.13;4964697;28;20058;-80
2023/06/17 06:34:33;;;;;;;12.02;4.90;;;;;;;15.53;66.07;100626.25;4955666;29;20054;-81
2023/06/17 06:37:37;;;;;;;7.18;4.53;;;;;;;15.66;65.39;100623.56;4953899;29;20057;-84
2023/06/17 06:40:40;;;;;;;8.63;5.00;;;;;;;15.80;65.42;100622.63;4953552;29;20063;-79
2023/06/17 06:43:45;;;;;;;6.07;4.93;;;;;;;15.84;65.02;100618.81;4952971;29;20520;-79
2023/06/17 06:46:54;;;;;;;5.63;4.47;;;;;;;15.93;64.98;100617.31;4954652;29;20105;-80
2023/06/17 06:49:58;;;;;;;6.45;4.90;;;;;;;16.09;64.55;100619.66;4953457;28;20159;-75
2023/06/17 06:53:01;;;;;;;10.60;4.97;;;;;;;16.22;64.40;100618.63;4952187;29;20054;-79
2023/06/17 06:56:06;;;;;;;5.90;5.00;;;;;;;16.33;63.27;100620.44;4952824;29;20124;-78
2023/06/17 06:59:13;;;;;;;9.45;4.57;;;;;;;16.44;63.27;100620.50;4964358;28;20069;-77
2023/06/17 07:02:16;;;;;;;6.75;4.60;;;;;;;16.57;63.50;100615.13;4953765;29;20626;-77
2023/06/17 07:05:22;;;;;;;5.65;4.65;;;;;;;16.66;63.24;100621.53;4965549;28;20563;-78
2023/06/17 07:08:30;;;;;;;6.25;4.60;;;;;;;16.74;63.00;100619.94;4954231;29;20053;-78
2023/06/17 07:11:34;;;;;;;6.45;4.47;;;;;;;16.82;62.06;100619.41;4953297;29;20507;-78
2023/06/17 07:14:38;;;;;;;6.65;5.00;;;;;;;16.96;61.53;100618.34;4934797;29;20051;-76
2023/06/17 07:17:42;;;;;;;8.75;5.07;;;;;;;17.10;61.44;100622.53;4953673;28;20052;-79
2023/06/17 07:20:45;;;;;;;6.47;4.93;;;;;;;17.25;60.42;100616.06;4964893;28;20041;-80
2023/06/17 07:23:52;;;;;;;9.05;5.50;;;;;;;17.34;59.92;100617.97;4960955;28;20061;-80
2023/06/17 07:26:56;;;;;;;7.20;4.97;;;;;;;17.47;59.81;100623.13;4960290;28;20074;-80
2023/06/17 07:30:00;;;;;;;7.40;4.70;;;;;;;17.56;59.10;100611.00;4962085;28;20102;-75
2023/06/17 07:33:05;;;;;;;9.77;4.90;;;;;;;17.71;58.39;100604.47;4963380;28;20106;-78
2023/06/17 07:36:10;;;;;;;6.90;5.53;;;;;;;17.85;57.70;100606.84;4963975;28;20042;-77
2023/06/17 07:39:13;;;;;;;9.30;5.78;;;;;;;18.19;55.61;100595.28;4959839;28;20039;-79
2023/06/17 07:42:16;;;;;;;9.35;4.78;;;;;;;18.33;54.35;100585.25;4961456;28;20452;-80
2023/06/17 07:45:19;;;;;;;7.30;4.70;;;;;;;18.54;53.83;100581.78;4962636;28;20568;-74
2023/06/17 07:48:23;;;;;;;10.93;5.20;;;;;;;18.60;53.67;100586.50;4961790;28;20113;-75
2023/06/17 07:51:26;;;;;;;16.80;5.18;;;;;;;18.88;52.76;100585.03;4963692;28;20086;-73
2023/06/17 07:54:30;;;;;;;6.03;4.65;;;;;;;19.14;50.82;100589.88;4963239;28;20105;-74
2023/06/17 07:57:34;;;;;;;6.75;4.55;;;;;;;19.22;50.33;100585.59;4959154;28;20090;-74
2023/06/17 08:00:38;;;;;;;8.25;4.25;;;;;;;19.32;49.59;100576.84;4959407;28;20071;-74
2023/06/17 08:03:41;;;;;;;5.72;4.32;;;;;;;19.38;49.04;100576.28;4964992;28;20097;-74
2023/06/17 08:06:45;;;;;;;7.88;4.43;;;;;;;19.62;49.40;100582.09;4965977;28;20050;-74
2023/06/17 08:09:48;;;;;;;9.10;4.85;;;;;;;19.92;46.88;100569.69;4967838;28;20045;-74
2023/06/17 08:12:52;;;;;;;7.05;4.50;;;;;;;19.90;47.44;100572.47;4982118;28;20100;-73
2023/06/17 08:15:55;;;;;;;8.93;4.70;;;;;;;19.98;46.52;100571.81;5001745;28;20093;-75
2023/06/17 08:18:59;;;;;;;6.70;4.45;;;;;;;20.15;45.48;100571.09;5002724;28;20143;-74
2023/06/17 08:22:02;;;;;;;4.35;3.95;;;;;;;20.24;45.35;100566.75;5004569;28;20100;-75
2023/06/17 08:25:07;;;;;;;5.38;4.07;;;;;;;20.42;45.29;100567.72;5004319;28;20100;-74
2023/06/17 08:28:11;;;;;;;9.38;4.07;;;;;;;20.67;44.84;100562.75;5005740;28;20040;-74
2023/06/17 08:31:14;;;;;;;10.18;4.45;;;;;;;20.57;45.30;100554.00;5002516;28;20112;-73
2023/06/17 08:34:18;;;;;;;8.55;4.43;;;;;;;20.84;45.04;100554.06;5002688;28;20046;-74
2023/06/17 08:37:21;;;;;;;8.02;5.18;;;;;;;20.90;43.96;100550.81;5004354;28;20113;-74
2023/06/17 08:40:27;;;;;;;6.63;4.10;;;;;;;21.01;42.67;100546.28;5005370;28;20045;-74
2023/06/17 08:43:32;;;;;;;11.10;4.15;;;;;;;21.21;42.45;100536.38;5006295;28;20060;-74
2023/06/17 08:46:37;;;;;;;13.63;4.32;;;;;;;21.51;41.92;100538.75;5002948;28;20057;-75
2023/06/17 08:49:46;;;;;;;8.70;3.70;;;;;;;21.79;41.25;100528.03;4991994;28;20041;-74
2023/06/17 08:52:50;;;;;;;8.35;4.45;;;;;;;21.95;40.27;100530.84;5005973;28;20103;-74
2023/06/17 08:55:53;;;;;;;4.50;3.60;;;;;;;22.12;39.74;100530.97;5000300;28;20130;-74
2023/06/17 08:58:57;;;;;;;6.88;3.75;;;;;;;22.06;39.48;100527.94;5001748;28;20507;-73
2023/06/17 09:02:01;;;;;;;13.00;4.13;;;;;;;22.09;39.73;100523.28;4998695;28;20053;-74
2023/06/17 09:05:06;;;;;;;9.27;4.22;;;;;;;22.22;39.32;100521.09;4995890;28;20419;-73
2023/06/17 09:08:10;;;;;;;8.25;4.50;;;;;;;22.43;39.24;100528.69;4995979;28;20125;-74
2023/06/17 09:11:14;;;;;;;7.00;3.75;;;;;;;22.16;39.32;100506.56;4994011;28;20598;-74
2023/06/17 09:14:18;;;;;;;8.88;4.80;;;;;;;22.45;38.98;100514.25;4993714;28;20111;-74
2023/06/17 09:17:29;;;;;;;7.22;4.00;;;;;;;22.38;39.16;100510.53;4995263;28;20120;-74
2023/06/17 09:20:33;;;;;;;8.15;3.92;;;;;;;22.46;37.62;100507.94;4995206;28;20052;-73
2023/06/17 09:23:36;;;;;;;9.63;4.15;;;;;;;22.36;38.22;100496.53;4995183;28;20050;-74
2023/06/17 09:26:42;;;;;;;6.60;3.72;;;;;;;22.79;36.94;100493.94;4995177;28;20463;-74
2023/06/17 09:29:48;;;;;;;6.90;4.05;;;;;;;23.00;36.62;100501.53;4995577;28;20069;-73
2023/06/17 09:32:52;;;;;;;8.73;4.40;;;;;;;22.72;36.54;100488.41;4995575;28;20042;-73
2023/06/17 09:36:08;;;;;;;6.97;4.22;;;;;;;22.77;36.48;100488.75;4995540;28;20411;-74
2023/06/17 09:39:12;;;;;;;8.20;4.18;;;;;;;22.88;36.19;100485.81;4995471;28;20076;-73
2023/06/17 09:42:16;;;;;;;9.40;3.92;;;;;;;22.96;35.72;100477.84;4995427;28;20514;-74
2023/06/17 09:45:24;;;;;;;7.45;3.80;;;;;;;23.11;35.21;100482.59;4995641;28;20049;-74
2023/06/17 09:48:31;;;;;;;6.25;4.10;;;;;;;23.22;35.17;100482.25;4983467;28;20096;-74
2023/06/17 09:51:38;;;;;;;7.85;3.90;;;;;;;23.39;35.50;100483.16;4995198;28;20049;-73
2023/06/17 09:54:42;;;;;;;8.32;4.07;;;;;;;23.41;34.22;100489.97;4994545;28;20100;-73
2023/06/17 09:57:45;;;;;;;8.98;4.05;;;;;;;23.58;35.67;100482.84;4994071;28;20074;-74
2023/06/17 10:00:51;;;;;;;7.07;3.50;;;;;;;23.67;33.53;100472.97;4993751;28;20080;-73
2023/06/17 10:03:55;;;;;;;5.47;3.42;;;;;;;23.74;33.19;100478.50;4995045;28;20048;-73
2023/06/17 10:07:00;;;;;;;6.65;3.70;;;;;;;23.73;33.39;100480.34;4994096;28;20061;-73
2023/06/17 10:10:03;;;;;;;8.23;4.18;;;;;;;23.89;32.74;100485.69;4994863;28;20053;-74
2023/06/17 10:13:08;;;;;;;6.07;3.85;;;;;;;23.74;33.10;100476.69;4994615;28;20423;-74
2023/06/17 10:16:15;;;;;;;4.53;3.17;;;;;;;23.51;32.47;100475.63;4994842;28;20583;-73
2023/06/17 10:19:26;;;;;;;6.20;3.70;;;;;;;23.51;34.25;100475.63;4994685;28;20104;-73
2023/06/17 10:22:29;;;;;;;7.53;3.15;;;;;;;23.72;32.17;100481.38;4994752;28;20045;-74
2023/06/17 10:25:33;;;;;;;5.88;3.70;;;;;;;23.80;30.88;100481.38;4993728;28;20153;-73
2023/06/17 10:29:07;;;;;;;6.85;3.45;;;;;;;23.87;31.12;100481.53;4982757;28;20094;-73
2023/06/17 10:32:24;;;;;;;9.57;3.38;;;;;;;24.04;30.93;100483.19;4994452;28;20140;-73
2023/06/17 10:35:44;;;;;;;6.35;3.35;;;;;;;24.13;30.72;100481.34;4992322;28;20459;-74
2023/06/17 10:39:06;;;;;;;5.03;3.25;;;;;;;24.21;30.88;100483.97;4980555;28;20061;-73
2023/06/17 10:42:13;;;;;;;4.45;3.40;;;;;;;24.28;31.71;100490.34;4992329;28;20101;-74
2023/06/17 10:45:16;;;;;;;5.88;3.13;;;;;;;24.18;30.25;100473.63;4992351;28;20049;-74
2023/06/17 10:48:24;;;;;;;5.70;2.95;;;;;;;24.25;31.15;100474.66;4993997;28;20100;-74
2023/06/17 10:51:29;;;;;;;7.05;3.25;;;;;;;24.48;30.11;100479.28;4994068;28;20553;-73
2023/06/17 10:54:33;;;;;;;12.63;3.83;;;;;;;24.50;29.54;100474.59;4994083;28;20100;-73
2023/06/17 10:57:36;;;;;;;15.23;3.65;;;;;;;24.46;30.90;100473.28;4982120;28;20053;-74
2023/06/17 11:00:40;;;;;;;5.43;3.00;;;;;;;24.48;30.13;100468.59;4994167;28;20507;-74
2023/06/17 11:03:44;;;;;;;5.53;3.20;;;;;;;24.47;28.53;100461.56;4993942;28;20092;-74
2023/06/17 11:06:47;;;;;;;5.50;3.10;;;;;;;24.56;29.65;100463.22;4993990;28;20056;-74
2023/06/17 11:09:51;;;;;;;6.85;2.72;;;;;;;24.57;27.62;100467.56;4993628;28;20040;-74
2023/06/17 11:12:54;;;;;;;5.22;2.83;;;;;;;24.51;27.84;100458.41;4993470;28;20467;-75
2023/06/17 11:15:57;;;;;;;5.90;3.35;;;;;;;24.71;27.78;100464.16;4994022;28;20049;-74
2023/06/17 11:19:30;;;;;;;4.15;2.80;;;;;;;24.85;26.33;100475.13;4993348;28;20459;-74
2023/06/17 11:22:38;;;;;;;;;;;;;;;24.77;25.18;100457.28;4994267;28;20045;-73
2023/06/17 11:25:53;;;;;;;7.88;2.55;;;;;;;24.81;24.77;100455.94;4993419;28;20371;-74
2023/06/17 11:28:57;;;;;;;4.55;2.67;;;;;;;24.78;23.79;100459.78;4993551;28;20076;-75
2023/06/17 11:32:01;;;;;;;3.83;2.47;;;;;;;24.76;23.23;100447.59;4991793;28;20092;-73
2023/06/17 11:35:05;;;;;;;4.80;2.42;;;;;;;24.64;25.01;100436.47;4993250;28;20053;-72
2023/06/17 11:38:08;;;;;;;5.55;2.95;;;;;;;24.91;26.05;100429.78;4991546;28;20049;-72
2023/06/17 11:41:11;;;;;;;5.95;3.00;;;;;;;25.22;25.73;100432.47;4993661;28;20073;-73
2023/06/17 11:48:34;;;;;;;3.50;2.10;;;;;;;25.17;22.97;100429.50;4991784;28;20129;-73
2023/06/17 11:51:37;;;;;;;5.00;2.33;;;;;;;25.40;23.63;100407.25;4991319;28;20057;-73
2023/06/17 11:54:52;;;;;;;4.78;2.70;;;;;;;25.59;24.24;100420.16;4990880;28;20100;-74
2023/06/17 11:57:55;;;;;;;9.40;3.30;;;;;;;25.50;24.62;100415.91;4991361;28;20048;-75
2023/06/17 12:01:02;;;;;;;6.18;3.03;;;;;;;25.61;25.18;100415.44;4991590;28;20125;-74
2023/06/17 12:04:05;;;;;;;9.18;3.25;;;;;;;25.65;25.39;100400.69;4980972;28;20057;-74
2023/06/17 12:07:09;;;;;;;7.10;3.10;;;;;;;25.65;25.34;100399.84;4993128;28;20085;-75
2023/06/17 12:10:12;;;;;;;8.38;3.28;;;;;;;25.68;25.92;100396.81;4993006;28;20046;-75
2023/06/17 12:13:16;;;;;;;6.80;3.15;;;;;;;25.71;25.22;100388.41;4992925;28;20073;-75
2023/06/17 12:16:31;;;;;;;6.32;3.28;;;;;;;25.85;26.30;100389.50;4993060;28;20101;-75
2023/06/17 12:19:37;;;;;;;5.95;2.95;;;;;;;26.00;26.89;100395.69;4992894;28;20467;-76
2023/06/17 12:22:45;;;;;;;5.53;3.20;;;;;;;25.98;26.88;100390.53;4993288;28;20053;-77
2023/06/17 12:25:48;;;;;;;7.45;3.75;;;;;;;26.13;27.20;100382.50;4992893;28;20160;-77
2023/06/17 12:28:54;;;;;;;7.13;3.25;;;;;;;26.27;27.65;100380.81;4992914;28;20069;-77
2023/06/17 12:31:57;;;;;;;5.50;3.38;;;;;;;26.11;28.37;100381.84;4992876;28;20110;-78
2023/06/17 12:35:00;;;;;;;7.10;3.40;;;;;;;26.23;27.79;100370.63;4992871;28;20048;-76
2023/06/17 12:38:04;;;;;;;6.05;3.35;;;;;;;26.23;28.58;100384.91;4992817;28;20088;-79
2023/06/17 12:41:08;;;;;;;6.57;3.03;;;;;;;26.11;27.89;100368.44;4992364;28;20511;-75
2023/06/17 12:44:11;;;;;;;5.95;3.30;;;;;;;25.90;27.23;100374.53;4992815;28;20411;-77
2023/06/17 12:47:18;;;;;;;9.80;3.40;;;;;;;25.98;28.26;100374.44;4992827;28;20498;-75
2023/06/17 12:50:21;;;;;;;6.65;3.38;;;;;;;26.43;28.11;100369.88;4995083;28;20049;-76
2023/06/17 12:53:26;;;;;;;7.03;3.35;;;;;;;26.72;26.73;100367.38;4996302;28;20562;-77
2023/06/17 12:56:30;;;;;;;4.47;2.97;;;;;;;26.87;27.01;100362.78;4996365;28;20049;-76
2023/06/17 12:59:34;;;;;;;5.10;2.95;;;;;;;27.06;25.94;100370.22;4996269;28;20049;-76
2023/06/17 13:02:38;;;;;;;8.15;2.92;;;;;;;27.03;22.88;100364.41;4996157;28;20519;-76
2023/06/17 13:05:42;;;;;;;5.10;2.80;;;;;;;27.11;23.18;100351.66;4996320;28;20116;-75
2023/06/17 13:08:47;;;;;;;5.78;2.75;;;;;;;27.33;22.72;100360.56;4996365;28;20080;-75
2023/06/17 13:11:54;;;;;;;4.13;2.90;;;;;;;27.70;22.58;100352.38;4995884;28;20073;-75
2023/06/17 13:14:59;;;;;;;4.03;2.47;;;;;;;27.93;23.64;100355.66;4995932;28;20081;-75
2023/06/17 13:18:02;;;;;;;7.00;3.15;;;;;;;27.96;22.31;100344.50;4995940;28;20131;-75
2023/06/17 13:21:06;;;;;;;6.25;3.00;;;;;;;27.91;22.99;100341.59;4995852;28;20045;-74
2023/06/17 13:24:09;;;;;;;8.18;3.00;;;;;;;27.80;21.88;100352.91;4995808;28;20580;-75
2023/06/17 13:27:14;;;;;;;3.60;2.50;;;;;;;27.71;21.99;100349.50;4995677;28;20161;-76
2023/06/17 13:30:17;;;;;;;5.00;2.47;;;;;;;28.01;21.81;100343.91;4995523;28;20480;-76
2023/06/17 13:33:23;;;;;;;5.68;3.00;;;;;;;28.25;21.40;100337.22;4995613;28;20045;-76
2023/06/17 13:36:29;;;;;;;4.18;2.45;;;;;;;28.61;21.54;100330.75;4995547;28;20048;-76
2023/06/17 13:39:49;;;;;;;3.65;2.67;;;;;;;28.43;21.16;100345.59;4983715;28;20049;-75
2023/06/17 13:42:53;;;;;;;3.65;2.53;;;;;;;28.95;19.63;100327.91;4995403;28;20045;-75
2023/06/17 13:45:58;;;;;;;4.45;2.47;;;;;;;29.05;20.53;100332.94;4995575;28;20518;-75
2023/06/17 13:49:03;;;;;;;8.32;3.03;;;;;;;29.31;20.65;100321.31;4995200;28;20114;-76
2023/06/17 13:52:08;;;;;;;5.95;2.42;;;;;;;29.29;19.94;100325.25;4995129;28;20049;-75
2023/06/17 13:55:41;;;;;;;3.67;2.50;;;;;;;29.25;19.37;100326.72;4995134;28;20045;-77
2023/06/17 13:59:30;;;;;;;5.03;2.80;;;;;;;29.91;19.62;100320.44;4997784;28;20048;-76
2023/06/17 14:02:33;;;;;;;4.28;2.75;;;;;;;30.09;22.58;100323.28;4986051;28;20033;-75
2023/06/17 14:06:59;;;;;;;;;;;;;;;;;;;;;
2023/06/17 14:10:28;;;;;;;4.10;3.05;;;;;;;31.03;21.63;100313.69;4914894;29;20518;-76
2023/06/17 14:14:17;;;;;;;4.55;2.72;;;;;;;30.61;21.72;100310.63;4971517;28;20077;-76
2023/06/17 14:17:32;;;;;;;9.00;5.53;;;;;;;31.34;20.97;100302.03;4973914;28;20102;-74
2023/06/17 14:20:38;;;;;;;6.30;3.60;;;;;;;31.81;21.10;100294.25;4975528;28;20218;-74
2023/06/17 14:23:57;;;;;;;5.63;2.58;;;;;;;32.38;19.71;100285.88;4975235;28;20073;-74
2023/06/17 14:27:20;;;;;;;7.03;3.60;;;;;;;35.36;16.95;100283.81;4975148;28;20085;-75
2023/06/17 14:30:24;;;;;;;5.32;3.08;;;;;;;36.46;15.03;100289.28;4975112;28;20100;-75